createdAt,value
2022-12-11T00:00:29.132Z,-5.60
2022-12-11T00:02:57.073Z,-5.60
2022-12-11T00:05:24.585Z,-5.60
2022-12-11T00:07:52.080Z,-5.60
2022-12-11T00:10:20.635Z,-5.60
2022-12-11T00:12:48.041Z,-5.60
2022-12-11T00:15:15.456Z,-5.60
2022-12-11T00:17:42.957Z,-5.50
2022-12-11T00:20:10.812Z,-5.60
2022-12-11T00:22:38.518Z,-5.60
2022-12-11T00:25:06.457Z,-5.60
2022-12-11T00:27:33.840Z,-5.50
2022-12-11T00:30:01.246Z,-5.60
2022-12-11T00:32:29.570Z,-5.50
2022-12-11T00:34:59.136Z,-5.50
2022-12-11T00:37:26.636Z,-5.50
2022-12-11T00:39:53.980Z,-5.50
2022-12-11T00:42:21.348Z,-5.50
2022-12-11T00:44:48.777Z,-5.50
2022-12-11T00:47:16.090Z,-5.50
2022-12-11T00:49:49.396Z,-5.50
2022-12-11T00:52:18.249Z,-5.50
2022-12-11T00:54:46.222Z,-5.50
2022-12-11T00:57:13.534Z,-5.50
2022-12-11T00:59:41.066Z,-5.50
2022-12-11T01:02:08.581Z,-5.50
2022-12-11T01:04:37.504Z,-5.50
2022-12-11T01:07:05.205Z,-5.50
2022-12-11T01:09:51.538Z,-5.50
2022-12-11T01:12:19.180Z,-5.60
2022-12-11T01:14:46.828Z,-5.60
2022-12-11T01:17:14.138Z,-5.60
2022-12-11T01:19:41.575Z,-5.60
2022-12-11T01:22:08.857Z,-5.60
2022-12-11T01:24:36.226Z,-5.60
2022-12-11T01:27:03.591Z,-5.60
2022-12-11T01:29:31.135Z,-5.60
2022-12-11T01:31:58.649Z,-5.60
2022-12-11T01:34:26.037Z,-5.60
2022-12-11T01:36:53.384Z,-5.60
2022-12-11T01:39:20.795Z,-5.60
2022-12-11T01:41:48.813Z,-5.60
2022-12-11T01:44:16.325Z,-5.60
2022-12-11T01:46:44.306Z,-5.60
2022-12-11T01:49:14.385Z,-5.60
2022-12-11T01:51:51.060Z,-5.60
2022-12-11T01:54:21.680Z,-5.60
2022-12-11T01:56:52.443Z,-5.60
2022-12-11T01:59:25.154Z,-5.60
2022-12-11T02:02:09.574Z,-5.60
2022-12-11T02:04:39.353Z,-5.70
2022-12-11T02:07:07.062Z,-5.70
2022-12-11T02:09:37.833Z,-5.70
2022-12-11T02:12:12.390Z,-5.60
2022-12-11T02:14:56.692Z,-5.70
2022-12-11T02:17:37.934Z,-5.70
2022-12-11T02:20:15.563Z,-5.70
2022-12-11T02:23:07.541Z,-5.70
2022-12-11T02:26:07.308Z,-5.70
2022-12-11T02:28:52.916Z,-5.70
2022-12-11T02:31:44.550Z,-5.70
2022-12-11T02:34:37.938Z,-5.70
2022-12-11T02:37:09.756Z,-5.70
2022-12-11T02:39:40.181Z,-5.70
2022-12-11T02:42:08.555Z,-5.70
2022-12-11T02:44:36.661Z,-5.70
2022-12-11T02:47:06.727Z,-5.70
2022-12-11T02:49:35.355Z,-5.60
2022-12-11T02:52:05.177Z,-5.70
2022-12-11T02:54:33.729Z,-5.70
2022-12-11T02:57:10.150Z,-5.70
2022-12-11T02:59:41.203Z,-5.60
2022-12-11T03:02:09.253Z,-5.60
2022-12-11T03:04:37.757Z,-5.70
2022-12-11T03:07:27.708Z,-5.70
2022-12-11T03:09:55.514Z,-5.60
2022-12-11T03:12:33.863Z,-5.60
2022-12-11T03:15:05.366Z,-5.70
2022-12-11T03:17:56.996Z,-5.60
2022-12-11T03:20:35.084Z,-5.60
2022-12-11T03:23:25.548Z,-5.70
2022-12-11T03:26:14.824Z,-5.60
2022-12-11T03:28:45.265Z,-5.70
2022-12-11T03:31:21.342Z,-5.70
2022-12-11T03:33:51.753Z,-5.70
2022-12-11T03:36:31.996Z,-5.70
2022-12-11T03:39:02.984Z,-5.80
2022-12-11T03:41:34.443Z,-5.80
2022-12-11T03:44:02.105Z,-5.80
2022-12-11T03:46:34.453Z,-5.70
2022-12-11T03:49:07.787Z,-5.80
2022-12-11T03:51:36.769Z,-5.70
2022-12-11T03:54:04.527Z,-5.70
2022-12-11T03:56:35.913Z,-5.70
2022-12-11T03:59:03.249Z,-5.60
2022-12-11T04:01:30.701Z,-5.60
2022-12-11T04:03:58.162Z,-5.60
2022-12-11T04:06:25.547Z,-5.60
2022-12-11T04:08:52.995Z,-5.50
2022-12-11T04:11:35.516Z,-5.60
2022-12-11T04:14:44.771Z,-5.60
2022-12-11T04:17:12.220Z,-5.60
2022-12-11T04:19:58.008Z,-5.60
2022-12-11T04:22:43.994Z,-5.70
2022-12-11T04:25:11.713Z,-5.60
2022-12-11T04:27:51.251Z,-5.70
2022-12-11T04:30:29.412Z,-5.60
2022-12-11T04:33:01.282Z,-5.60
2022-12-11T04:35:29.363Z,-5.60
2022-12-11T04:37:56.826Z,-5.60
2022-12-11T04:40:24.330Z,-5.50
2022-12-11T04:42:51.843Z,-5.50
2022-12-11T04:45:19.217Z,-5.50
2022-12-11T04:47:47.046Z,-5.50
2022-12-11T04:50:16.084Z,-5.50
2022-12-11T04:52:43.858Z,-5.60
2022-12-11T04:55:11.894Z,-5.60
2022-12-11T04:57:41.117Z,-5.60
2022-12-11T05:00:11.122Z,-5.50
2022-12-11T05:02:40.133Z,-5.50
2022-12-11T05:05:13.265Z,-5.50
2022-12-11T05:07:41.458Z,-5.60
2022-12-11T05:10:09.978Z,-5.60
2022-12-11T05:12:37.428Z,-5.70
2022-12-11T05:15:05.098Z,-5.60
2022-12-11T05:17:32.563Z,-5.60
2022-12-11T05:20:00.092Z,-5.60
2022-12-11T05:22:27.642Z,-5.60
2022-12-11T05:24:55.023Z,-5.60
2022-12-11T05:27:22.547Z,-5.50
2022-12-11T05:29:51.684Z,-5.50
2022-12-11T05:32:22.239Z,-5.50
2022-12-11T05:34:51.379Z,-5.60
2022-12-11T05:37:19.324Z,-5.60
2022-12-11T05:39:47.003Z,-5.50
2022-12-11T05:42:14.365Z,-5.60
2022-12-11T05:44:41.738Z,-5.60
2022-12-11T05:47:09.346Z,-5.60
2022-12-11T05:49:36.824Z,-5.60
2022-12-11T05:52:04.297Z,-5.70
2022-12-11T05:54:31.618Z,-5.60
2022-12-11T05:56:58.983Z,-5.70
2022-12-11T05:59:26.618Z,-5.70
2022-12-11T06:01:54.160Z,-5.70
2022-12-11T06:04:21.626Z,-5.70
2022-12-11T06:06:49.062Z,-5.70
2022-12-11T06:09:17.262Z,-5.70
2022-12-11T06:11:44.582Z,-5.70
2022-12-11T06:14:13.443Z,-5.70
2022-12-11T06:16:41.305Z,-5.70
2022-12-11T06:19:15.447Z,-5.70
2022-12-11T06:21:43.005Z,-5.60
2022-12-11T06:24:11.786Z,-5.60
2022-12-11T06:26:39.495Z,-5.60
2022-12-11T06:29:10.920Z,-5.60
2022-12-11T06:31:40.987Z,-5.70
2022-12-11T06:34:09.350Z,-5.70
2022-12-11T06:36:37.148Z,-5.70
2022-12-11T06:39:05.057Z,-5.70
2022-12-11T06:41:32.696Z,-5.70
2022-12-11T06:44:00.186Z,-5.70
2022-12-11T06:46:27.544Z,-5.60
2022-12-11T06:48:54.959Z,-5.70
2022-12-11T06:51:23.860Z,-5.60
2022-12-11T06:53:55.785Z,-5.60
2022-12-11T06:56:24.953Z,-5.60
2022-12-11T06:58:52.701Z,-5.60
2022-12-11T07:01:26.161Z,-5.50
2022-12-11T07:03:55.178Z,-5.50
2022-12-11T07:06:23.274Z,-5.50
2022-12-11T07:08:51.329Z,-5.50
2022-12-11T07:11:20.145Z,-5.50
2022-12-11T07:13:48.198Z,-5.50
2022-12-11T07:16:17.520Z,-5.60
2022-12-11T07:18:48.545Z,-5.60
2022-12-11T07:21:16.102Z,-5.60
2022-12-11T07:23:43.844Z,-5.60
2022-12-11T07:26:14.350Z,-5.60
2022-12-11T07:28:42.316Z,-5.60
2022-12-11T07:31:19.240Z,-5.60
2022-12-11T07:33:47.548Z,-5.60
2022-12-11T07:36:16.424Z,-5.60
2022-12-11T07:38:44.161Z,-5.70
2022-12-11T07:41:13.887Z,-5.70
2022-12-11T07:43:41.465Z,-5.70
2022-12-11T07:46:13.202Z,-5.70
2022-12-11T07:48:42.007Z,-5.70
2022-12-11T07:51:25.451Z,-5.70
2022-12-11T07:53:54.178Z,-5.70
2022-12-11T07:56:22.124Z,-5.70
2022-12-11T07:58:50.240Z,-5.70
2022-12-11T08:01:23.386Z,-5.70
2022-12-11T08:03:51.250Z,-5.80
2022-12-11T08:06:19.825Z,-5.90
2022-12-11T08:08:47.560Z,-5.90
2022-12-11T08:11:16.232Z,-5.90
2022-12-11T08:13:44.124Z,-5.80
2022-12-11T08:16:14.852Z,-5.70
2022-12-11T08:18:43.766Z,-5.80
2022-12-11T08:21:25.951Z,-5.90
2022-12-11T08:23:54.222Z,-5.90
2022-12-11T08:26:27.524Z,-5.80
2022-12-11T08:28:55.442Z,-5.80
2022-12-11T08:31:23.262Z,-5.80
2022-12-11T08:33:51.813Z,-5.90
2022-12-11T08:36:21.846Z,-6.00
2022-12-11T08:38:50.173Z,-5.90
2022-12-11T08:41:23.451Z,-5.90
2022-12-11T08:43:55.237Z,-5.80
2022-12-11T08:46:25.141Z,-5.70
2022-12-11T08:48:53.582Z,-5.60
2022-12-11T08:51:25.181Z,-5.60
2022-12-11T08:53:56.421Z,-5.40
2022-12-11T08:56:24.452Z,-5.30
2022-12-11T08:58:52.199Z,-5.30
2022-12-11T09:01:25.698Z,-5.20
2022-12-11T09:03:54.691Z,-5.20
2022-12-11T09:06:24.468Z,-5.20
2022-12-11T09:08:53.686Z,-5.10
2022-12-11T09:11:23.935Z,-5.10
2022-12-11T09:13:51.796Z,-5.10
2022-12-11T09:16:21.307Z,-5.00
2022-12-11T09:18:51.175Z,-4.90
2022-12-11T09:21:20.040Z,-4.80
2022-12-11T09:23:47.839Z,-5.00
2022-12-11T09:26:17.686Z,-5.10
2022-12-11T09:28:46.865Z,-5.00
2022-12-11T09:31:23.755Z,-5.00
2022-12-11T09:33:52.508Z,-5.00
2022-12-11T09:36:20.095Z,-5.30
2022-12-11T09:38:48.492Z,-5.40
2022-12-11T09:41:21.270Z,-5.30
2022-12-11T09:44:14.247Z,-5.30
2022-12-11T09:46:42.754Z,-5.30
2022-12-11T09:49:40.201Z,-5.30
2022-12-11T09:52:14.010Z,-5.20
2022-12-11T09:54:52.736Z,-5.20
